JAL2412 RJFK-RJOO
Flight info
| Callsign | JAL2412 |
|---|---|
| Flight time | 0h 52m |
| Altitude | 33000 |
| Route | MIDAI M750 MADOG Y753 IZUMI |
| Aircraft | E190/M-SDE3GILORVW/S |
Departure
| Time | 2026-04-29 09:04 |
|---|---|
| Airport | Kagoshima Airport (RJFK) |
Arrival
| Time | 2026-04-29 09:56 |
|---|---|
| Airport | Osaka Itami International Airport (RJOO) |
| Time | Latitude | Longitude | Altitude | Speed | Heading |
|---|---|---|---|---|---|
| 2026-04-29 08:41 | 31.80170 | 130.71659 | 881 ft | 0 kts | 240° |
| 2026-04-29 08:55 | 31.80180 | 130.71680 | 882 ft | 4 kts | 239° |
| 2026-04-29 08:55 | 31.80194 | 130.71707 | 882 ft | 4 kts | 236° |
| 2026-04-29 08:56 | 31.80210 | 130.71733 | 883 ft | 4 kts | 232° |
| 2026-04-29 08:56 | 31.80227 | 130.71757 | 883 ft | 4 kts | 222° |
| 2026-04-29 08:56 | 31.80248 | 130.71773 | 883 ft | 4 kts | 178° |
| 2026-04-29 08:56 | 31.80256 | 130.71772 | 882 ft | 3 kts | 150° |
| 2026-04-29 08:59 | 31.80253 | 130.71775 | 881 ft | 2 kts | 150° |
| 2026-04-29 08:59 | 31.80233 | 130.71788 | 880 ft | 5 kts | 150° |
| 2026-04-29 08:59 | 31.80193 | 130.71815 | 880 ft | 8 kts | 150° |
| 2026-04-29 08:59 | 31.80130 | 130.71858 | 878 ft | 12 kts | 150° |
| 2026-04-29 09:00 | 31.80051 | 130.71910 | 878 ft | 14 kts | 150° |
| 2026-04-29 09:00 | 31.79959 | 130.71973 | 876 ft | 17 kts | 150° |
| 2026-04-29 09:00 | 31.79845 | 130.72051 | 872 ft | 20 kts | 150° |
| 2026-04-29 09:00 | 31.79715 | 130.72137 | 870 ft | 23 kts | 150° |
| 2026-04-29 09:01 | 31.79572 | 130.72234 | 869 ft | 25 kts | 150° |
| 2026-04-29 09:01 | 31.79422 | 130.72336 | 869 ft | 25 kts | 150° |
| 2026-04-29 09:01 | 31.79261 | 130.72444 | 868 ft | 27 kts | 150° |
| 2026-04-29 09:01 | 31.79151 | 130.72519 | 867 ft | 13 kts | 146° |
| 2026-04-29 09:02 | 31.79130 | 130.72619 | 864 ft | 16 kts | 60° |
| 2026-04-29 09:02 | 31.79177 | 130.72708 | 863 ft | 10 kts | 49° |
| 2026-04-29 09:02 | 31.79222 | 130.72696 | 863 ft | 0 kts | 327° |
| 2026-04-29 09:02 | 31.79222 | 130.72695 | 863 ft | 0 kts | 327° |
| 2026-04-29 09:03 | 31.79230 | 130.72690 | 864 ft | 10 kts | 328° |
| 2026-04-29 09:03 | 31.79506 | 130.72502 | 868 ft | 81 kts | 330° |
| 2026-04-29 09:03 | 31.80191 | 130.72034 | 879 ft | 144 kts | 329° |
| 2026-04-29 09:03 | 31.81212 | 130.71337 | 1001 ft | 191 kts | 330° |
| 2026-04-29 09:04 | 31.82455 | 130.70532 | 1586 ft | 215 kts | 334° |
| 2026-04-29 09:04 | 31.84009 | 130.70201 | 2322 ft | 247 kts | 8° |
| 2026-04-29 09:04 | 31.85568 | 130.71084 | 3455 ft | 258 kts | 37° |
| 2026-04-29 09:04 | 31.86723 | 130.72670 | 4663 ft | 254 kts | 61° |
| 2026-04-29 09:05 | 31.87223 | 130.74623 | 5719 ft | 250 kts | 88° |
| 2026-04-29 09:05 | 31.86991 | 130.76727 | 6300 ft | 274 kts | 116° |
| 2026-04-29 09:05 | 31.85974 | 130.78633 | 7079 ft | 282 kts | 129° |
| 2026-04-29 09:05 | 31.84710 | 130.80436 | 7939 ft | 289 kts | 134° |
| 2026-04-29 09:06 | 31.83189 | 130.82004 | 8790 ft | 293 kts | 149° |
| 2026-04-29 09:06 | 31.81426 | 130.83245 | 9721 ft | 297 kts | 155° |
| 2026-04-29 09:06 | 31.79593 | 130.84467 | 10430 ft | 312 kts | 155° |
| 2026-04-29 09:06 | 31.77680 | 130.85796 | 11065 ft | 327 kts | 154° |
| 2026-04-29 09:07 | 31.75709 | 130.87202 | 11920 ft | 334 kts | 155° |
| 2026-04-29 09:07 | 31.73708 | 130.88639 | 12847 ft | 339 kts | 155° |
| 2026-04-29 09:07 | 31.71684 | 130.90097 | 13883 ft | 344 kts | 156° |
| 2026-04-29 09:07 | 31.69655 | 130.91555 | 14763 ft | 349 kts | 156° |
| 2026-04-29 09:08 | 31.67536 | 130.93078 | 15706 ft | 355 kts | 156° |
| 2026-04-29 09:08 | 31.65431 | 130.94590 | 16618 ft | 361 kts | 156° |
| 2026-04-29 09:08 | 31.63294 | 130.96193 | 17451 ft | 372 kts | 149° |
| 2026-04-29 09:08 | 31.61559 | 130.98535 | 18252 ft | 394 kts | 123° |
| 2026-04-29 09:09 | 31.60738 | 131.01645 | 18962 ft | 408 kts | 98° |
| 2026-04-29 09:09 | 31.60651 | 131.04987 | 19694 ft | 412 kts | 90° |
| 2026-04-29 09:09 | 31.60685 | 131.08017 | 20316 ft | 416 kts | 91° |
| 2026-04-29 09:09 | 31.60688 | 131.11530 | 20996 ft | 421 kts | 92° |
| 2026-04-29 09:10 | 31.60663 | 131.14993 | 21672 ft | 425 kts | 92° |
| 2026-04-29 09:10 | 31.60632 | 131.18481 | 22334 ft | 429 kts | 92° |
| 2026-04-29 09:10 | 31.60611 | 131.21996 | 22989 ft | 433 kts | 91° |
| 2026-04-29 09:10 | 31.60605 | 131.25551 | 23569 ft | 437 kts | 91° |
| 2026-04-29 09:11 | 31.60613 | 131.29126 | 24092 ft | 441 kts | 91° |
| 2026-04-29 09:11 | 31.60634 | 131.32747 | 24564 ft | 444 kts | 91° |
| 2026-04-29 09:11 | 31.60808 | 131.36316 | 25106 ft | 446 kts | 79° |
| 2026-04-29 09:11 | 31.61864 | 131.39728 | 25671 ft | 443 kts | 59° |
| 2026-04-29 09:12 | 31.63484 | 131.42799 | 26311 ft | 440 kts | 54° |
| 2026-04-29 09:12 | 31.65103 | 131.45858 | 26912 ft | 440 kts | 55° |
| 2026-04-29 09:12 | 31.66699 | 131.48920 | 27472 ft | 440 kts | 56° |
| 2026-04-29 09:12 | 31.68266 | 131.51958 | 28005 ft | 441 kts | 56° |
| 2026-04-29 09:13 | 31.69845 | 131.55045 | 28564 ft | 441 kts | 56° |
| 2026-04-29 09:13 | 31.71418 | 131.58135 | 29092 ft | 441 kts | 56° |
| 2026-04-29 09:13 | 31.72987 | 131.61221 | 29609 ft | 440 kts | 56° |
| 2026-04-29 09:13 | 31.74561 | 131.64321 | 30101 ft | 441 kts | 56° |
| 2026-04-29 09:14 | 31.76129 | 131.67413 | 30509 ft | 440 kts | 56° |
| 2026-04-29 09:14 | 31.77695 | 131.70506 | 30929 ft | 440 kts | 56° |
| 2026-04-29 09:14 | 31.79255 | 131.73590 | 31360 ft | 439 kts | 56° |
| 2026-04-29 09:14 | 31.80816 | 131.76675 | 31765 ft | 438 kts | 56° |
| 2026-04-29 09:15 | 31.82375 | 131.79759 | 32153 ft | 438 kts | 56° |
| 2026-04-29 09:15 | 31.83936 | 131.82844 | 32528 ft | 438 kts | 56° |
| 2026-04-29 09:15 | 31.85495 | 131.85923 | 32884 ft | 438 kts | 56° |
| 2026-04-29 09:15 | 31.87028 | 131.88955 | 33212 ft | 440 kts | 56° |
| 2026-04-29 09:16 | 31.88602 | 131.92057 | 33194 ft | 446 kts | 56° |
| 2026-04-29 09:16 | 31.91876 | 131.98497 | 33016 ft | 472 kts | 56° |
| 2026-04-29 09:17 | 31.95316 | 132.05288 | 33038 ft | 492 kts | 56° |
| 2026-04-29 09:17 | 31.98883 | 132.12352 | 33016 ft | 511 kts | 56° |
| 2026-04-29 09:18 | 32.02544 | 132.19618 | 33022 ft | 524 kts | 56° |
| 2026-04-29 09:18 | 32.06286 | 132.27059 | 33036 ft | 529 kts | 56° |
| 2026-04-29 09:19 | 32.10038 | 132.34534 | 33034 ft | 530 kts | 56° |
| 2026-04-29 09:19 | 32.13814 | 132.42031 | 33031 ft | 530 kts | 55° |
| 2026-04-29 09:20 | 32.17730 | 132.49402 | 33034 ft | 530 kts | 54° |
| 2026-04-29 09:20 | 32.21612 | 132.56743 | 33034 ft | 530 kts | 55° |
| 2026-04-29 09:21 | 32.25510 | 132.64147 | 33020 ft | 530 kts | 55° |
| 2026-04-29 09:21 | 32.29402 | 132.71561 | 33012 ft | 531 kts | 55° |
| 2026-04-29 09:22 | 32.33290 | 132.78982 | 33027 ft | 531 kts | 55° |
| 2026-04-29 09:22 | 32.37172 | 132.86408 | 33018 ft | 531 kts | 55° |
| 2026-04-29 09:23 | 32.41052 | 132.93845 | 33030 ft | 530 kts | 55° |
| 2026-04-29 09:23 | 32.44928 | 133.01289 | 33033 ft | 531 kts | 55° |
| 2026-04-29 09:24 | 32.48773 | 133.08688 | 33031 ft | 531 kts | 55° |
| 2026-04-29 09:24 | 32.52639 | 133.16142 | 33015 ft | 531 kts | 55° |
| 2026-04-29 09:25 | 32.56503 | 133.23609 | 33010 ft | 531 kts | 55° |
| 2026-04-29 09:25 | 32.60362 | 133.31079 | 33023 ft | 531 kts | 55° |
| 2026-04-29 09:26 | 32.64217 | 133.38555 | 33019 ft | 531 kts | 55° |
| 2026-04-29 09:26 | 32.68025 | 133.46077 | 33014 ft | 531 kts | 56° |
| 2026-04-29 09:27 | 32.71770 | 133.53645 | 33011 ft | 531 kts | 56° |
| 2026-04-29 09:27 | 32.75516 | 133.61206 | 33011 ft | 531 kts | 56° |
| 2026-04-29 09:28 | 32.79170 | 133.68589 | 33028 ft | 531 kts | 56° |
| 2026-04-29 09:28 | 32.82914 | 133.76162 | 33025 ft | 531 kts | 56° |
| 2026-04-29 09:29 | 32.86676 | 133.83755 | 33017 ft | 532 kts | 56° |
| 2026-04-29 09:29 | 32.92305 | 133.95149 | 33030 ft | 533 kts | 56° |
| 2026-04-29 09:30 | 32.96067 | 134.02784 | 33025 ft | 534 kts | 56° |
| 2026-04-29 09:30 | 32.99199 | 134.09152 | 33028 ft | 535 kts | 56° |
| 2026-04-29 09:31 | 33.02954 | 134.16805 | 33035 ft | 535 kts | 56° |
| 2026-04-29 09:31 | 33.04806 | 134.20590 | 33034 ft | 519 kts | 56° |
| 2026-04-29 09:31 | 33.06822 | 134.24008 | 33045 ft | 489 kts | 41° |
| 2026-04-29 09:32 | 33.09227 | 134.26744 | 33024 ft | 469 kts | 34° |
| 2026-04-29 09:32 | 33.11718 | 134.29218 | 31956 ft | 479 kts | 32° |
| 2026-04-29 09:32 | 33.14338 | 134.31765 | 30689 ft | 491 kts | 33° |
| 2026-04-29 09:32 | 33.16991 | 134.34390 | 29395 ft | 501 kts | 34° |
| 2026-04-29 09:33 | 33.19611 | 134.37040 | 28898 ft | 488 kts | 34° |
| 2026-04-29 09:33 | 33.22181 | 134.39653 | 28218 ft | 481 kts | 34° |
| 2026-04-29 09:33 | 33.24700 | 134.42225 | 27569 ft | 473 kts | 34° |
| 2026-04-29 09:33 | 33.27183 | 134.44761 | 26974 ft | 465 kts | 34° |
| 2026-04-29 09:34 | 33.29627 | 134.47260 | 26338 ft | 460 kts | 34° |
| 2026-04-29 09:34 | 33.32038 | 134.49729 | 25744 ft | 454 kts | 34° |
| 2026-04-29 09:34 | 33.34422 | 134.52172 | 25159 ft | 449 kts | 34° |
| 2026-04-29 09:34 | 33.36789 | 134.54601 | 24568 ft | 446 kts | 35° |
| 2026-04-29 09:35 | 33.39133 | 134.57011 | 23974 ft | 444 kts | 35° |
| 2026-04-29 09:35 | 33.41465 | 134.59410 | 23348 ft | 441 kts | 35° |
| 2026-04-29 09:35 | 33.43770 | 134.61788 | 22808 ft | 434 kts | 35° |
| 2026-04-29 09:35 | 33.46052 | 134.64144 | 22234 ft | 431 kts | 35° |
| 2026-04-29 09:36 | 33.48315 | 134.66482 | 21672 ft | 428 kts | 35° |
| 2026-04-29 09:36 | 33.50561 | 134.68804 | 21109 ft | 426 kts | 36° |
| 2026-04-29 09:36 | 33.52800 | 134.71123 | 20544 ft | 423 kts | 36° |
| 2026-04-29 09:36 | 33.55020 | 134.73425 | 19985 ft | 421 kts | 36° |
| 2026-04-29 09:37 | 33.57227 | 134.75716 | 19435 ft | 418 kts | 36° |
| 2026-04-29 09:37 | 33.59432 | 134.77926 | 19145 ft | 405 kts | 30° |
| 2026-04-29 09:37 | 33.61762 | 134.79790 | 19073 ft | 403 kts | 25° |
| 2026-04-29 09:37 | 33.64176 | 134.81531 | 19040 ft | 405 kts | 24° |
| 2026-04-29 09:38 | 33.66607 | 134.83272 | 19050 ft | 408 kts | 25° |
| 2026-04-29 09:38 | 33.69034 | 134.85038 | 19043 ft | 409 kts | 25° |
| 2026-04-29 09:38 | 33.71459 | 134.86821 | 19045 ft | 409 kts | 25° |
| 2026-04-29 09:38 | 33.73881 | 134.88612 | 19055 ft | 409 kts | 25° |
| 2026-04-29 09:39 | 33.76308 | 134.90409 | 19042 ft | 409 kts | 25° |
| 2026-04-29 09:39 | 33.78702 | 134.92181 | 19048 ft | 409 kts | 25° |
| 2026-04-29 09:39 | 33.81129 | 134.93978 | 19050 ft | 409 kts | 25° |
| 2026-04-29 09:39 | 33.83556 | 134.95778 | 19049 ft | 409 kts | 25° |
| 2026-04-29 09:40 | 33.85982 | 134.97577 | 18973 ft | 411 kts | 25° |
| 2026-04-29 09:40 | 33.88446 | 134.99400 | 18420 ft | 412 kts | 25° |
| 2026-04-29 09:40 | 33.90847 | 135.01191 | 18192 ft | 403 kts | 25° |
| 2026-04-29 09:40 | 33.93219 | 135.02954 | 17973 ft | 400 kts | 25° |
| 2026-04-29 09:41 | 33.95590 | 135.04712 | 17725 ft | 400 kts | 25° |
| 2026-04-29 09:41 | 33.97964 | 135.06474 | 17482 ft | 399 kts | 25° |
| 2026-04-29 09:41 | 34.00329 | 135.08233 | 17238 ft | 398 kts | 25° |
| 2026-04-29 09:41 | 34.02683 | 135.09985 | 16993 ft | 396 kts | 25° |
| 2026-04-29 09:42 | 34.04445 | 135.11299 | 16815 ft | 395 kts | 25° |
| 2026-04-29 09:42 | 34.06829 | 135.13077 | 16570 ft | 393 kts | 25° |
| 2026-04-29 09:42 | 34.09154 | 135.14810 | 16338 ft | 391 kts | 25° |
| 2026-04-29 09:42 | 34.11438 | 135.16511 | 16083 ft | 390 kts | 26° |
| 2026-04-29 09:43 | 34.13747 | 135.18233 | 15842 ft | 388 kts | 26° |
| 2026-04-29 09:43 | 34.16033 | 135.19943 | 15615 ft | 386 kts | 26° |
| 2026-04-29 09:43 | 34.17756 | 135.21234 | 15432 ft | 384 kts | 26° |
| 2026-04-29 09:43 | 34.20007 | 135.22920 | 15208 ft | 382 kts | 26° |
| 2026-04-29 09:44 | 34.22271 | 135.24614 | 14829 ft | 381 kts | 26° |
| 2026-04-29 09:44 | 34.24472 | 135.26355 | 14432 ft | 374 kts | 29° |
| 2026-04-29 09:44 | 34.26608 | 135.28140 | 13909 ft | 370 kts | 30° |
| 2026-04-29 09:44 | 34.28717 | 135.29900 | 13397 ft | 362 kts | 29° |
| 2026-04-29 09:45 | 34.30737 | 135.31574 | 12962 ft | 352 kts | 28° |
| 2026-04-29 09:45 | 34.32738 | 135.33217 | 12463 ft | 346 kts | 28° |
| 2026-04-29 09:45 | 34.34715 | 135.34840 | 12019 ft | 338 kts | 28° |
| 2026-04-29 09:45 | 34.36634 | 135.36415 | 11569 ft | 328 kts | 28° |
| 2026-04-29 09:46 | 34.38140 | 135.37652 | 11227 ft | 321 kts | 28° |
| 2026-04-29 09:46 | 34.39958 | 135.39141 | 10835 ft | 312 kts | 28° |
| 2026-04-29 09:46 | 34.41753 | 135.40609 | 10388 ft | 309 kts | 28° |
| 2026-04-29 09:47 | 34.43497 | 135.42060 | 10011 ft | 306 kts | 32° |
| 2026-04-29 09:47 | 34.44879 | 135.43973 | 10065 ft | 302 kts | 53° |
| 2026-04-29 09:47 | 34.45949 | 135.46237 | 10080 ft | 315 kts | 58° |
| 2026-04-29 09:47 | 34.46860 | 135.48340 | 9884 ft | 311 kts | 58° |
| 2026-04-29 09:48 | 34.47893 | 135.50683 | 8906 ft | 319 kts | 58° |
| 2026-04-29 09:48 | 34.48967 | 135.53052 | 7950 ft | 321 kts | 58° |
| 2026-04-29 09:48 | 34.50023 | 135.55363 | 7516 ft | 303 kts | 57° |
| 2026-04-29 09:48 | 34.51021 | 135.57546 | 7164 ft | 290 kts | 57° |
| 2026-04-29 09:49 | 34.51944 | 135.59557 | 6784 ft | 285 kts | 57° |
| 2026-04-29 09:49 | 34.52891 | 135.61620 | 6411 ft | 278 kts | 57° |
| 2026-04-29 09:49 | 34.53863 | 135.63600 | 6063 ft | 268 kts | 48° |
| 2026-04-29 09:49 | 34.55201 | 135.65012 | 5723 ft | 252 kts | 21° |
| 2026-04-29 09:50 | 34.56836 | 135.65453 | 5425 ft | 236 kts | 357° |
| 2026-04-29 09:50 | 34.58471 | 135.65436 | 5079 ft | 234 kts | 355° |
| 2026-04-29 09:50 | 34.60022 | 135.65160 | 4762 ft | 228 kts | 336° |
| 2026-04-29 09:50 | 34.61320 | 135.64140 | 4499 ft | 218 kts | 316° |
| 2026-04-29 09:51 | 34.62436 | 135.62905 | 4199 ft | 215 kts | 317° |
| 2026-04-29 09:51 | 34.63561 | 135.61765 | 3904 ft | 213 kts | 317° |
| 2026-04-29 09:51 | 34.64616 | 135.60521 | 3604 ft | 211 kts | 313° |
| 2026-04-29 09:51 | 34.65634 | 135.59235 | 3313 ft | 210 kts | 315° |
| 2026-04-29 09:52 | 34.66652 | 135.58020 | 3043 ft | 207 kts | 316° |
| 2026-04-29 09:52 | 34.67626 | 135.56858 | 3063 ft | 188 kts | 316° |
| 2026-04-29 09:52 | 34.68492 | 135.55795 | 2905 ft | 183 kts | 315° |
| 2026-04-29 09:52 | 34.69398 | 135.54662 | 2408 ft | 194 kts | 316° |
| 2026-04-29 09:53 | 34.70340 | 135.53496 | 1981 ft | 195 kts | 316° |
| 2026-04-29 09:53 | 34.71202 | 135.52520 | 1696 ft | 185 kts | 323° |
| 2026-04-29 09:53 | 34.72102 | 135.51466 | 1479 ft | 175 kts | 314° |
| 2026-04-29 09:53 | 34.72874 | 135.50435 | 1264 ft | 165 kts | 321° |
| 2026-04-29 09:54 | 34.73532 | 135.49701 | 1085 ft | 155 kts | 320° |
| 2026-04-29 09:54 | 34.74245 | 135.48823 | 871 ft | 146 kts | 316° |
| 2026-04-29 09:54 | 34.74950 | 135.47948 | 669 ft | 138 kts | 319° |
| 2026-04-29 09:54 | 34.75633 | 135.47118 | 510 ft | 140 kts | 317° |
| 2026-04-29 09:55 | 34.76325 | 135.46280 | 348 ft | 140 kts | 317° |
| 2026-04-29 09:55 | 34.77001 | 135.45456 | 144 ft | 133 kts | 315° |
| 2026-04-29 09:55 | 34.77594 | 135.44735 | 48 ft | 121 kts | 315° |
| 2026-04-29 09:55 | 34.78029 | 135.44208 | 49 ft | 78 kts | 315° |
| 2026-04-29 09:56 | 34.78313 | 135.43862 | 46 ft | 47 kts | 315° |
| 2026-04-29 09:56 | 34.78516 | 135.43621 | 45 ft | 35 kts | 322° |
| 2026-04-29 09:56 | 34.78717 | 135.43495 | 46 ft | 24 kts | 334° |
| 2026-04-29 09:56 | 34.78847 | 135.43430 | 48 ft | 19 kts | 347° |
| 2026-04-29 09:57 | 34.78979 | 135.43440 | 48 ft | 19 kts | 17° |
| 2026-04-29 09:57 | 34.79075 | 135.43530 | 48 ft | 17 kts | 44° |
| 2026-04-29 09:57 | 34.79176 | 135.43582 | 47 ft | 14 kts | 352° |
| 2026-04-29 09:57 | 34.79272 | 135.43580 | 47 ft | 15 kts | 29° |
| 2026-04-29 09:58 | 34.79315 | 135.43649 | 47 ft | 8 kts | 59° |
| 2026-04-29 09:58 | 34.79350 | 135.43712 | 47 ft | 8 kts | 52° |
| 2026-04-29 09:58 | 34.79337 | 135.43756 | 45 ft | 6 kts | 155° |
| 2026-04-29 09:58 | 34.79304 | 135.43769 | 47 ft | 4 kts | 163° |
| 2026-04-29 09:59 | 34.79293 | 135.43773 | 46 ft | 0 kts | 163° |